Time;durP1;ratioP1;P1;durP2;ratioP2;P2;SDS_P1;SDS_P2;PMS_P1;PMS_P2;Temp;Humidity;BMP_temperature;BMP_pressure;BME280_temperature;BME280_humidity;BME280_pressure;Samples;Min_cycle;Max_cycle;Signal;HPM_P1;HPM_P2
2021/01/23 00:01:29;;;;;;;21.33;14.07;;;;;;;-0.27;100.00;98673.66;1663468;85;21179;-65
2021/01/23 00:03:57;;;;;;;22.20;14.68;;;;;;;-0.26;100.00;98669.31;1669989;85;21644;-64
2021/01/23 00:06:25;;;;;;;19.00;13.38;;;;;;;-0.27;100.00;98655.47;1665101;85;21301;-65
2021/01/23 00:08:53;;;;;;;22.27;14.23;;;;;;;-0.28;100.00;98659.47;1666583;85;21192;-65
2021/01/23 00:11:21;;;;;;;19.73;13.68;;;;;;;-0.29;100.00;98671.63;1668949;85;21325;-65
2021/01/23 00:13:48;;;;;;;21.55;14.05;;;;;;;-0.28;100.00;98674.61;1664713;84;21183;-65
2021/01/23 00:16:16;;;;;;;20.27;13.62;;;;;;;-0.29;100.00;98674.23;1640476;86;21204;-65
2021/01/23 00:18:46;;;;;;;20.50;13.90;;;;;;;-0.30;100.00;98680.83;1658908;86;21655;-65
2021/01/23 00:21:15;;;;;;;22.27;14.38;;;;;;;-0.31;100.00;98677.88;1638141;86;21255;-65
2021/01/23 00:23:42;;;;;;;20.23;13.78;;;;;;;-0.34;100.00;98678.91;1688938;84;21172;-65
2021/01/23 00:26:10;;;;;;;24.23;14.23;;;;;;;-0.35;100.00;98682.45;1691135;84;21226;-65
2021/01/23 00:28:37;;;;;;;20.05;13.83;;;;;;;-0.37;100.00;98684.33;1692559;84;21162;-65
2021/01/23 00:31:05;;;;;;;22.32;15.98;;;;;;;-0.40;100.00;98687.12;1667768;84;21742;-66
2021/01/23 00:33:32;;;;;;;19.60;13.68;;;;;;;-0.42;100.00;98687.22;1720638;82;21703;-65
2021/01/23 00:36:00;;;;;;;20.72;13.32;;;;;;;-0.44;100.00;98678.70;1723137;81;21184;-65
2021/01/23 00:38:28;;;;;;;20.92;13.68;;;;;;;-0.45;100.00;98677.49;1710374;81;21603;-65
2021/01/23 00:40:56;;;;;;;19.10;13.38;;;;;;;-0.44;100.00;98671.38;1708689;82;21187;-65
2021/01/23 00:43:24;;;;;;;21.33;15.10;;;;;;;-0.47;100.00;98680.22;1710728;83;21146;-65
2021/01/23 00:45:52;;;;;;;20.68;14.35;;;;;;;-0.49;100.00;98679.46;1690252;84;21163;-65
2021/01/23 00:48:20;;;;;;;21.37;13.45;;;;;;;-0.51;100.00;98676.14;1658094;85;21184;-65
2021/01/23 00:50:48;;;;;;;22.95;13.25;;;;;;;-0.51;100.00;98671.42;1640957;85;21338;-65
2021/01/23 00:53:16;;;;;;;20.57;13.50;;;;;;;-0.49;100.00;98664.35;1656889;85;21354;-65
2021/01/23 00:55:44;;;;;;;21.45;14.23;;;;;;;-0.49;100.00;98661.75;1675999;84;21317;-65
2021/01/23 00:58:12;;;;;;;20.68;13.88;;;;;;;-0.50;100.00;98660.11;1659460;85;21177;-65
2021/01/23 01:00:40;;;;;;;20.30;13.93;;;;;;;-0.54;100.00;98662.08;1661281;86;21251;-65
2021/01/23 01:03:08;;;;;;;21.15;13.30;;;;;;;-0.55;100.00;98651.78;1689121;84;21183;-65
2021/01/23 01:05:38;;;;;;;21.20;13.90;;;;;;;-0.55;100.00;98651.78;1685445;84;21296;-66
2021/01/23 01:08:06;;;;;;;22.30;14.90;;;;;;;-0.56;100.00;98652.70;1721846;83;21579;-65
2021/01/23 01:10:33;;;;;;;24.32;15.15;;;;;;;-0.58;100.00;98645.02;1722547;81;21155;-65
2021/01/23 01:13:03;;;;;;;23.50;14.87;;;;;;;-0.61;100.00;98646.06;1726648;82;21237;-65
2021/01/23 01:15:30;;;;;;;20.80;13.93;;;;;;;-0.61;100.00;98643.47;1690111;83;21198;-65
2021/01/23 01:17:58;;;;;;;21.87;13.88;;;;;;;-0.61;100.00;98649.95;1719717;83;21211;-65
2021/01/23 01:20:26;;;;;;;21.62;14.53;;;;;;;-0.63;100.00;98666.59;1720006;83;21162;-65
2021/01/23 01:22:54;;;;;;;22.82;14.68;;;;;;;-0.65;100.00;98671.88;1685813;84;21309;-66
2021/01/23 01:25:22;;;;;;;23.27;15.53;;;;;;;-0.68;100.00;98663.45;1652915;85;21188;-65
2021/01/23 01:27:50;;;;;;;21.37;14.03;;;;;;;-0.70;100.00;98670.52;1713739;83;21179;-66
2021/01/23 01:30:19;;;;;;;21.57;14.23;;;;;;;-0.72;100.00;98673.20;1729228;81;21560;-65
2021/01/23 01:32:47;;;;;;;21.57;14.78;;;;;;;-0.75;100.00;98668.20;1724250;81;21207;-65
2021/01/23 01:35:17;;;;;;;19.75;13.48;;;;;;;-0.77;100.00;98667.48;1727650;82;21293;-65
2021/01/23 01:37:44;;;;;;;23.95;14.47;;;;;;;-0.81;100.00;98660.36;1714433;81;21584;-66
2021/01/23 01:40:13;;;;;;;22.52;14.50;;;;;;;-0.83;100.00;98660.93;1708844;83;21597;-66
2021/01/23 01:42:41;;;;;;;21.93;14.80;;;;;;;-0.82;100.00;98666.98;1687106;84;21305;-65
2021/01/23 01:45:11;;;;;;;23.70;15.18;;;;;;;-0.81;100.00;98656.46;1642430;86;21152;-65
2021/01/23 01:47:40;;;;;;;25.72;16.60;;;;;;;-0.81;100.00;98659.53;1654259;86;21275;-65
2021/01/23 01:50:12;;;;;;;26.93;17.55;;;;;;;-0.82;100.00;98658.71;1647401;86;21354;-65
2021/01/23 01:52:43;;;;;;;23.92;16.07;;;;;;;-0.81;100.00;98645.25;1708436;83;21187;-65
2021/01/23 01:55:12;;;;;;;21.60;15.45;;;;;;;-0.78;100.00;98648.95;1713986;81;21171;-65
2021/01/23 01:57:41;;;;;;;22.82;16.48;;;;;;;-0.79;100.00;98649.88;1702530;83;21179;-65
2021/01/23 02:00:11;;;;;;;26.60;16.20;;;;;;;-0.79;100.00;98664.16;1711444;81;21621;-65
2021/01/23 02:03:08;;;;;;;23.65;14.73;;;;;;;-0.80;100.00;98660.73;1720037;81;21635;-66
2021/01/23 02:06:05;;;;;;;25.08;16.00;;;;;;;-0.77;100.00;98654.97;1696308;83;21121;-65
2021/01/23 02:08:57;;;;;;;24.55;15.72;;;;;;;-0.75;100.00;98661.72;1714764;81;21167;-65
2021/01/23 02:11:47;;;;;;;25.65;16.07;;;;;;;-0.74;100.00;98657.38;1719613;83;21378;-65
2021/01/23 02:14:36;;;;;;;23.98;14.65;;;;;;;-0.72;100.00;98662.00;1712453;81;21202;-65
2021/01/23 02:17:08;;;;;;;23.07;15.28;;;;;;;-0.70;100.00;98658.83;1701058;83;21148;-66
2021/01/23 02:20:15;;;;;;;21.52;14.70;;;;;;;-0.68;100.00;98656.48;1715485;83;21207;-66
2021/01/23 02:23:04;;;;;;;22.60;14.70;;;;;;;-0.64;100.00;98654.52;1712382;81;21192;-66
2021/01/23 02:25:35;;;;;;;23.38;15.32;;;;;;;-0.62;100.00;98655.25;1718428;82;21607;-66
2021/01/23 02:28:15;;;;;;;24.52;16.00;;;;;;;-0.62;100.00;98652.65;1691440;83;21210;-66
2021/01/23 02:31:11;;;;;;;23.87;15.25;;;;;;;-0.65;100.00;98648.50;1689029;83;21591;-65
2021/01/23 02:33:38;;;;;;;24.55;15.85;;;;;;;-0.65;100.00;98654.17;1664162;84;21232;-65
2021/01/23 02:36:07;;;;;;;25.08;16.32;;;;;;;-0.67;100.00;98662.06;1669347;84;21576;-66
2021/01/23 02:38:35;;;;;;;22.93;15.25;;;;;;;-0.67;100.00;98656.05;1689460;84;21583;-66
2021/01/23 02:41:03;;;;;;;20.82;13.70;;;;;;;-0.67;100.00;98655.56;1687951;84;21312;-66
2021/01/23 02:43:31;;;;;;;23.95;15.40;;;;;;;-0.66;100.00;98662.41;1687849;84;21179;-66
2021/01/23 02:45:59;;;;;;;21.70;14.40;;;;;;;-0.67;100.00;98668.55;1688249;84;21306;-66
2021/01/23 02:48:28;;;;;;;21.55;15.03;;;;;;;-0.71;100.00;98664.94;1687558;83;21351;-66
2021/01/23 02:50:57;;;;;;;22.20;14.80;;;;;;;-0.72;100.00;98667.19;1689758;84;21191;-66
2021/01/23 02:53:27;;;;;;;21.42;14.75;;;;;;;-0.73;100.00;98672.01;1689247;84;21214;-67
2021/01/23 02:55:58;;;;;;;22.77;14.65;;;;;;;-0.70;100.00;98678.31;1684266;84;21203;-66
2021/01/23 02:58:26;;;;;;;22.58;15.58;;;;;;;-0.71;100.00;98673.59;1666381;84;21595;-66
2021/01/23 03:00:55;;;;;;;21.73;13.90;;;;;;;-0.73;100.00;98672.01;1690041;84;21175;-66
2021/01/23 03:03:22;;;;;;;22.60;15.13;;;;;;;-0.75;100.00;98675.17;1690155;84;21350;-66
2021/01/23 03:05:50;;;;;;;22.27;13.58;;;;;;;-0.78;100.00;98680.11;1684076;84;21198;-66
2021/01/23 03:08:18;;;;;;;22.07;14.85;;;;;;;-0.78;100.00;98677.52;1690402;84;21568;-66
2021/01/23 03:10:46;;;;;;;23.52;14.73;;;;;;;-0.80;100.00;98678.09;1689957;84;21222;-66
2021/01/23 03:13:14;;;;;;;22.62;14.85;;;;;;;-0.83;100.00;98680.39;1688539;84;21345;-66
2021/01/23 03:15:43;;;;;;;22.93;15.23;;;;;;;-0.87;100.00;98685.44;1690059;83;21579;-65
2021/01/23 03:18:10;;;;;;;22.82;14.58;;;;;;;-0.90;100.00;98686.92;1690683;84;21140;-66
2021/01/23 03:20:38;;;;;;;22.87;14.78;;;;;;;-0.92;100.00;98672.39;1623394;86;21875;-66
2021/01/23 03:23:06;;;;;;;23.87;15.68;;;;;;;-0.95;100.00;98670.83;1703935;82;21771;-66
2021/01/23 03:25:34;;;;;;;23.85;13.72;;;;;;;-0.98;100.00;98676.21;1685205;84;21143;-66
2021/01/23 03:28:02;;;;;;;22.45;14.80;;;;;;;-0.98;100.00;98680.93;1657377;84;21320;-66
2021/01/23 03:30:30;;;;;;;20.75;14.15;;;;;;;-0.98;100.00;98665.83;1697531;83;21164;-66
2021/01/23 03:32:59;;;;;;;23.30;15.15;;;;;;;-1.00;100.00;98671.59;1708822;83;21175;-66
2021/01/23 03:35:28;;;;;;;21.68;13.98;;;;;;;-1.03;100.00;98671.34;1719322;83;21180;-66
2021/01/23 03:37:55;;;;;;;21.33;14.20;;;;;;;-1.05;100.00;98660.23;1686477;84;21378;-66
2021/01/23 03:40:24;;;;;;;18.95;13.75;;;;;;;-1.05;100.00;98665.41;1668020;84;21194;-68
2021/01/23 03:42:52;;;;;;;24.20;14.60;;;;;;;-1.04;100.00;98670.13;1693147;84;21381;-66
2021/01/23 03:45:20;;;;;;;21.60;13.65;;;;;;;-1.06;100.00;98668.92;1691469;84;21170;-66
2021/01/23 03:47:48;;;;;;;21.48;14.75;;;;;;;-1.07;100.00;98672.91;1721212;82;21166;-65
2021/01/23 03:50:16;;;;;;;20.50;14.63;;;;;;;-1.07;100.00;98665.13;1663168;85;21165;-65
2021/01/23 03:52:44;;;;;;;20.72;14.13;;;;;;;-1.05;100.00;98668.02;1649135;84;21572;-66
2021/01/23 03:55:13;;;;;;;21.05;14.30;;;;;;;-1.06;100.00;98661.14;1714993;83;21188;-66
2021/01/23 03:57:41;;;;;;;23.62;14.38;;;;;;;-1.07;100.00;98665.95;1711990;83;21314;-66
2021/01/23 04:00:13;;;;;;;20.60;14.38;;;;;;;-1.09;100.00;98657.44;1721147;83;21186;-66
2021/01/23 04:02:41;;;;;;;19.70;13.25;;;;;;;-1.09;100.00;98667.81;1704009;83;21163;-67
2021/01/23 04:05:10;;;;;;;20.88;13.95;;;;;;;-1.12;100.00;98662.84;1697017;83;21165;-66
2021/01/23 04:07:38;;;;;;;22.62;14.28;;;;;;;-1.13;100.00;98662.47;1721076;82;21183;-66
2021/01/23 04:10:08;;;;;;;21.82;13.65;;;;;;;-1.17;100.00;98668.31;1721500;83;21245;-66
2021/01/23 04:12:37;;;;;;;21.55;14.38;;;;;;;-1.17;100.00;98668.79;1709897;83;21215;-66
2021/01/23 04:15:06;;;;;;;22.65;14.65;;;;;;;-1.17;100.00;98672.68;1714121;83;21211;-66
2021/01/23 04:17:34;;;;;;;23.47;15.53;;;;;;;-1.18;100.00;98682.68;1707482;83;21242;-66
2021/01/23 04:20:06;;;;;;;20.15;13.38;;;;;;;-1.18;100.00;98683.98;1721998;83;21208;-67
2021/01/23 04:22:34;;;;;;;19.77;13.43;;;;;;;-1.17;100.00;98675.28;1712036;83;21619;-67
2021/01/23 04:25:04;;;;;;;21.45;13.78;;;;;;;-1.14;100.00;98672.94;1708516;83;21195;-67
2021/01/23 04:27:32;;;;;;;20.55;13.62;;;;;;;-1.15;100.00;98673.89;1723830;83;21182;-66
2021/01/23 04:30:00;;;;;;;21.90;14.33;;;;;;;-1.16;100.00;98670.44;1721210;83;21191;-66
2021/01/23 04:32:29;;;;;;;22.07;14.00;;;;;;;-1.17;100.00;98670.09;1684678;84;21615;-66
2021/01/23 04:34:57;;;;;;;21.52;13.35;;;;;;;-1.14;100.00;98671.20;1688111;84;21837;-66
2021/01/23 04:37:24;;;;;;;21.37;13.22;;;;;;;-1.13;100.00;98670.25;1688783;84;21210;-66
2021/01/23 04:39:53;;;;;;;20.10;13.50;;;;;;;-1.15;100.00;98672.12;1688692;84;21174;-66
2021/01/23 04:42:21;;;;;;;20.88;14.30;;;;;;;-1.18;100.00;98660.63;1661628;85;21312;-66
2021/01/23 04:44:49;;;;;;;17.87;13.05;;;;;;;-1.19;100.00;98658.98;1634990;86;21238;-66
2021/01/23 04:47:17;;;;;;;20.65;13.93;;;;;;;-1.18;100.00;98652.84;1642259;86;21195;-66
2021/01/23 04:49:45;;;;;;;22.67;13.70;;;;;;;-1.22;100.00;98663.05;1688059;84;21590;-66
2021/01/23 04:52:14;;;;;;;20.08;13.75;;;;;;;-1.26;100.00;98670.20;1691244;84;21178;-66
2021/01/23 04:54:44;;;;;;;22.98;15.03;;;;;;;-1.26;100.00;98666.31;1659646;86;21617;-66
2021/01/23 04:57:12;;;;;;;23.50;14.53;;;;;;;-1.28;100.00;98670.77;1692186;84;21812;-66
2021/01/23 04:59:41;;;;;;;22.87;14.10;;;;;;;-1.31;100.00;98666.23;1713994;83;21607;-66
2021/01/23 05:02:21;;;;;;;21.45;14.33;;;;;;;-1.32;100.00;98663.30;1717306;83;21223;-66
2021/01/23 05:04:54;;;;;;;22.10;13.75;;;;;;;-1.31;100.00;98667.53;1717032;82;21179;-66
2021/01/23 05:07:29;;;;;;;23.07;14.45;;;;;;;-1.31;100.00;98673.58;1716290;83;21176;-66
2021/01/23 05:10:08;;;;;;;23.90;15.23;;;;;;;-1.33;100.00;98681.89;1719642;83;21151;-66
2021/01/23 05:12:42;;;;;;;21.77;15.50;;;;;;;-1.36;100.00;98684.70;1693502;82;21215;-66
2021/01/23 05:15:21;;;;;;;21.45;13.95;;;;;;;-1.37;100.00;98689.06;1707114;83;21179;-66
2021/01/23 05:17:54;;;;;;;22.17;15.23;;;;;;;-1.41;100.00;98688.87;1690930;84;21202;-66
2021/01/23 05:20:44;;;;;;;22.37;14.58;;;;;;;-1.43;100.00;98687.31;1690040;84;21147;-66
2021/01/23 05:23:23;;;;;;;21.93;14.55;;;;;;;-1.44;100.00;98695.56;1678675;85;21298;-65
2021/01/23 05:25:56;;;;;;;19.92;14.00;;;;;;;-1.46;100.00;98700.02;1659596;86;21224;-66
2021/01/23 05:28:38;;;;;;;22.20;14.05;;;;;;;-1.48;100.00;98690.65;1663602;85;21175;-66
2021/01/23 05:31:17;;;;;;;17.82;12.10;;;;;;;-1.51;100.00;98687.80;1666756;83;21987;-66
2021/01/23 05:33:44;;;;;;;24.35;14.90;;;;;;;-1.54;100.00;98688.45;1659469;84;21643;-66
2021/01/23 05:36:13;;;;;;;21.95;14.05;;;;;;;-1.57;100.00;98680.41;1660704;85;21174;-66
2021/01/23 05:38:43;;;;;;;19.40;13.15;;;;;;;-1.60;100.00;98681.41;1645489;85;21600;-66
2021/01/23 05:41:15;;;;;;;19.32;13.62;;;;;;;-1.61;100.00;98687.55;1681824;84;21401;-66
2021/01/23 05:43:49;;;;;;;21.57;15.03;;;;;;;-1.62;100.00;98683.74;1670721;84;21223;-66
2021/01/23 05:46:30;;;;;;;21.45;14.25;;;;;;;-1.66;100.00;98686.16;1677428;84;21191;-66
2021/01/23 05:48:59;;;;;;;19.32;13.70;;;;;;;-1.69;100.00;98694.95;1669499;84;22287;-66
2021/01/23 05:51:27;;;;;;;23.27;15.15;;;;;;;-1.68;100.00;98693.17;1713286;83;21156;-66
2021/01/23 05:53:54;;;;;;;21.95;13.88;;;;;;;-1.68;100.00;98693.17;1727927;83;21182;-66
2021/01/23 05:56:23;;;;;;;24.37;14.75;;;;;;;-1.65;100.00;98691.70;1714504;82;21164;-66
2021/01/23 05:58:51;;;;;;;23.32;15.08;;;;;;;-1.63;100.00;98697.18;1712772;83;21172;-66
2021/01/23 06:01:20;;;;;;;20.08;13.50;;;;;;;-1.62;100.00;98690.23;1707621;83;21155;-66
2021/01/23 06:03:53;;;;;;;20.05;14.38;;;;;;;-1.61;100.00;98689.28;1696161;83;21608;-66
2021/01/23 06:06:20;;;;;;;20.62;14.40;;;;;;;-1.57;100.00;98686.42;1712932;83;21178;-66
2021/01/23 06:08:50;;;;;;;23.15;14.87;;;;;;;-1.53;100.00;98685.77;1709801;83;21125;-65
2021/01/23 06:11:24;;;;;;;23.15;15.08;;;;;;;-1.50;100.00;98690.73;1703870;81;21120;-66
2021/01/23 06:13:56;;;;;;;21.52;14.00;;;;;;;-1.47;100.00;98699.64;1724782;82;21196;-66
2021/01/23 06:16:37;;;;;;;22.98;15.53;;;;;;;-1.43;100.00;98704.17;1701219;81;21147;-66
2021/01/23 06:19:11;;;;;;;22.17;14.47;;;;;;;-1.40;100.00;98707.41;1686273;83;21204;-67
2021/01/23 06:21:48;;;;;;;21.02;14.75;;;;;;;-1.21;100.00;98706.25;1688319;84;21151;-67
2021/01/23 06:24:18;;;;;;;21.77;14.15;;;;;;;-0.62;100.00;98706.74;1711066;82;21175;-65
2021/01/23 06:26:57;;;;;;;20.10;13.90;;;;;;;-0.01;100.00;98699.17;1718839;83;21599;-66
2021/01/23 06:29:38;;;;;;;19.62;14.03;;;;;;;0.58;100.00;98705.06;1717691;83;21178;-65
2021/01/23 06:32:19;;;;;;;21.48;14.15;;;;;;;1.11;99.66;98700.83;1715267;83;21315;-66
2021/01/23 06:34:59;;;;;;;19.75;13.65;;;;;;;1.67;95.99;98707.17;1711878;82;21139;-66
2021/01/23 06:37:34;;;;;;;19.52;13.10;;;;;;;2.33;91.42;98699.51;1708571;82;21204;-66
2021/01/23 06:40:16;;;;;;;20.95;13.85;;;;;;;3.02;87.41;98714.10;1713688;82;21227;-66
2021/01/23 06:42:49;;;;;;;17.12;12.93;;;;;;;3.75;81.76;98710.33;1665499;84;21225;-66
2021/01/23 06:45:28;;;;;;;18.00;12.35;;;;;;;4.47;76.47;98706.81;1688315;84;21151;-66
2021/01/23 06:47:57;;;;;;;17.87;13.18;;;;;;;5.06;73.35;98709.06;1664316;84;21217;-66
2021/01/23 06:50:29;;;;;;;17.77;13.68;;;;;;;5.68;69.91;98711.39;1688417;84;21380;-66
2021/01/23 06:52:56;;;;;;;19.42;12.65;;;;;;;6.25;67.58;98713.56;1692493;84;21202;-66
2021/01/23 06:55:55;;;;;;;18.23;12.85;;;;;;;6.82;64.45;98713.91;1667946;84;21345;-67
2021/01/23 06:58:29;;;;;;;18.02;12.35;;;;;;;7.38;61.85;98707.55;1573268;90;21232;-67
2021/01/23 07:00:59;;;;;;;20.27;13.25;;;;;;;7.95;58.45;98704.03;1706755;83;21203;-67
2021/01/23 07:03:27;;;;;;;17.25;12.85;;;;;;;8.30;56.94;98692.20;1726041;83;21325;-67
2021/01/23 07:06:04;;;;;;;18.77;14.13;;;;;;;8.70;55.04;98694.20;1686065;83;21605;-66
2021/01/23 07:08:40;;;;;;;19.05;13.80;;;;;;;9.17;53.13;98693.33;1721994;83;21211;-67
2021/01/23 07:11:17;;;;;;;21.02;15.13;;;;;;;9.63;51.35;98695.82;1713376;82;21192;-66
2021/01/23 07:14:01;;;;;;;20.97;15.15;;;;;;;10.00;50.46;98710.78;1715079;83;21381;-68
2021/01/23 07:16:32;;;;;;;19.67;14.23;;;;;;;10.32;48.48;98711.22;1702856;83;21361;-66
2021/01/23 07:19:05;;;;;;;16.52;13.55;;;;;;;10.72;47.44;98709.91;1715646;83;21191;-66
2021/01/23 07:21:38;;;;;;;18.05;13.98;;;;;;;11.03;46.58;98711.23;1722436;83;21203;-66
2021/01/23 07:24:09;;;;;;;18.27;13.32;;;;;;;11.40;45.64;98714.97;1644625;84;21141;-66
2021/01/23 07:26:37;;;;;;;19.27;14.23;;;;;;;11.87;44.12;98715.75;1654964;85;21330;-66
2021/01/23 07:29:05;;;;;;;19.45;13.95;;;;;;;12.00;42.51;98718.63;1696025;83;21226;-66
2021/01/23 07:31:33;;;;;;;18.95;14.63;;;;;;;11.93;42.30;98715.05;1712935;81;21184;-68
2021/01/23 07:34:11;;;;;;;17.17;13.60;;;;;;;11.92;42.44;98714.74;1705505;83;21174;-66
2021/01/23 07:36:43;;;;;;;18.45;13.68;;;;;;;12.09;41.54;98709.59;1726815;83;21571;-67
2021/01/23 07:39:18;;;;;;;17.40;13.80;;;;;;;11.97;42.04;98699.95;1692161;82;21168;-66
2021/01/23 07:41:54;;;;;;;18.20;14.13;;;;;;;12.23;41.57;98696.86;1709232;83;21274;-66
2021/01/23 07:44:26;;;;;;;19.40;14.00;;;;;;;12.61;40.78;98698.58;1707924;83;21179;-66
2021/01/23 07:46:55;;;;;;;19.27;14.28;;;;;;;12.88;40.06;98701.03;1721273;82;21612;-66
2021/01/23 07:49:27;;;;;;;19.25;14.13;;;;;;;13.04;39.77;98693.36;1712605;83;21180;-67
2021/01/23 07:52:07;;;;;;;19.03;15.07;;;;;;;13.32;38.97;98692.14;1702743;81;21814;-67
2021/01/23 07:54:50;;;;;;;21.37;15.25;;;;;;;13.63;38.55;98707.42;1704625;83;21593;-68
2021/01/23 07:57:18;;;;;;;18.55;15.18;;;;;;;14.05;37.66;98713.69;1688017;84;21191;-67
2021/01/23 07:59:47;;;;;;;19.77;15.20;;;;;;;14.14;37.25;98719.17;1688458;83;21175;-67
2021/01/23 08:02:17;;;;;;;17.80;14.80;;;;;;;14.32;36.98;98730.62;1690570;84;21193;-67
2021/01/23 08:04:53;;;;;;;17.48;14.07;;;;;;;14.59;36.67;98732.12;1687745;84;21203;-65
2021/01/23 08:07:30;;;;;;;17.73;14.07;;;;;;;14.97;36.08;98722.38;1710712;83;21175;-68
2021/01/23 08:10:17;;;;;;;16.05;12.23;;;;;;;15.22;35.24;98721.30;1725407;83;21172;-67
2021/01/23 08:12:59;;;;;;;15.35;12.43;;;;;;;15.28;34.92;98725.33;1711055;83;21789;-65
2021/01/23 08:15:37;;;;;;;16.12;12.95;;;;;;;15.50;34.87;98731.80;1678704;84;21698;-67
2021/01/23 08:18:17;;;;;;;16.42;12.93;;;;;;;15.79;33.88;98730.64;1665650;84;21230;-67
2021/01/23 08:20:45;;;;;;;15.58;12.63;;;;;;;16.04;33.41;98729.48;1690703;84;21190;-66
2021/01/23 08:23:18;;;;;;;19.60;14.13;;;;;;;16.24;33.35;98732.66;1717316;83;21237;-66
2021/01/23 08:25:51;;;;;;;18.95;13.68;;;;;;;16.39;33.33;98719.91;1724182;83;21206;-68
2021/01/23 08:28:40;;;;;;;15.32;11.63;;;;;;;16.85;32.33;98721.64;1715361;83;21338;-67
2021/01/23 08:31:23;;;;;;;16.73;12.58;;;;;;;17.21;31.07;98728.23;1712009;83;21178;-68
2021/01/23 08:33:56;;;;;;;17.75;13.32;;;;;;;17.37;31.20;98718.06;1708824;83;21303;-67
2021/01/23 08:36:29;;;;;;;15.95;11.73;;;;;;;17.46;30.79;98724.27;1721826;83;21516;-68
2021/01/23 08:39:05;;;;;;;16.17;12.25;;;;;;;17.44;30.64;98722.33;1691430;83;21168;-68
2021/01/23 08:41:33;;;;;;;14.60;13.00;;;;;;;17.56;30.37;98719.80;1717995;83;21618;-68
2021/01/23 08:44:02;;;;;;;16.82;13.68;;;;;;;17.77;30.52;98725.29;1709157;83;21156;-68
2021/01/23 08:46:31;;;;;;;14.75;12.55;;;;;;;18.01;29.81;98726.36;1725699;83;21584;-67
2021/01/23 08:49:00;;;;;;;14.73;12.73;;;;;;;18.31;29.51;98724.33;1713491;81;21164;-68
2021/01/23 08:51:28;;;;;;;16.55;12.80;;;;;;;18.52;29.16;98718.25;1698736;83;21218;-68
2021/01/23 08:53:56;;;;;;;19.85;14.75;;;;;;;18.33;28.81;98714.22;1688678;84;21313;-68
2021/01/23 08:56:25;;;;;;;20.12;13.90;;;;;;;18.01;29.46;98715.66;1694183;83;21313;-68
2021/01/23 08:58:53;;;;;;;17.05;14.00;;;;;;;18.08;29.30;98717.44;1716990;83;21155;-68
2021/01/23 09:01:20;;;;;;;17.82;14.38;;;;;;;17.80;29.51;98720.02;1713076;83;21220;-67
2021/01/23 09:03:50;;;;;;;17.05;13.98;;;;;;;17.77;29.81;98719.13;1716350;83;21222;-67
2021/01/23 09:06:17;;;;;;;17.32;14.13;;;;;;;17.99;29.74;98715.56;1717027;83;21166;-67
2021/01/23 09:08:45;;;;;;;19.37;14.68;;;;;;;18.17;29.26;98715.59;1686082;84;21210;-68
2021/01/23 09:11:15;;;;;;;17.77;15.35;;;;;;;18.47;28.94;98722.10;1689064;84;21211;-67
2021/01/23 09:13:45;;;;;;;18.92;15.30;;;;;;;18.56;28.41;98715.41;1714702;83;21176;-68
2021/01/23 09:16:13;;;;;;;19.57;15.15;;;;;;;18.62;28.68;98715.84;1707324;83;21613;-68
2021/01/23 09:18:43;;;;;;;15.58;13.40;;;;;;;18.91;28.31;98712.96;1713069;83;21214;-68
2021/01/23 09:21:12;;;;;;;16.90;14.95;;;;;;;19.32;27.65;98705.17;1725342;83;21179;-68
2021/01/23 09:23:40;;;;;;;16.02;13.43;;;;;;;19.56;27.10;98702.88;1728092;83;21218;-68
2021/01/23 09:26:08;;;;;;;18.80;14.58;;;;;;;19.66;26.68;98698.28;1685599;84;21236;-68
2021/01/23 09:28:35;;;;;;;18.92;14.33;;;;;;;19.78;26.55;98697.78;1717176;83;21315;-68
2021/01/23 09:31:03;;;;;;;16.15;13.45;;;;;;;20.01;26.91;98694.81;1694840;83;21207;-68
2021/01/23 09:33:31;;;;;;;18.02;14.33;;;;;;;20.10;26.49;98700.66;1691329;84;21599;-69
2021/01/23 09:36:00;;;;;;;17.20;14.25;;;;;;;20.05;26.29;98711.27;1645304;86;21347;-68
2021/01/23 09:38:28;;;;;;;18.95;15.65;;;;;;;20.05;26.47;98706.73;1632407;86;21580;-67
2021/01/23 09:40:56;;;;;;;19.23;14.70;;;;;;;20.15;26.21;98702.94;1661478;85;21219;-66
2021/01/23 09:43:24;;;;;;;19.12;15.88;;;;;;;20.26;25.98;98701.83;1664779;85;21356;-68
2021/01/23 09:45:51;;;;;;;19.87;16.45;;;;;;;20.49;25.48;98692.92;1634800;86;21168;-68
2021/01/23 09:48:21;;;;;;;19.02;16.07;;;;;;;20.86;24.98;98696.66;1683308;84;21225;-68
2021/01/23 09:50:49;;;;;;;20.70;16.17;;;;;;;21.06;24.98;98688.98;1689733;84;21151;-66
2021/01/23 09:53:17;;;;;;;21.02;15.25;;;;;;;21.16;24.73;98688.88;1667112;84;21159;-67
2021/01/23 09:55:45;;;;;;;22.50;16.93;;;;;;;21.06;24.83;98691.67;1708016;83;21366;-68
2021/01/23 09:58:13;;;;;;;20.15;17.02;;;;;;;20.70;25.23;98696.33;1690820;84;21350;-67
2021/01/23 10:00:41;;;;;;;22.80;16.80;;;;;;;20.71;25.82;98695.28;1687657;84;21203;-67
2021/01/23 10:03:09;;;;;;;18.95;14.87;;;;;;;20.79;25.36;98699.47;1688367;84;21607;-67
2021/01/23 10:05:39;;;;;;;19.23;15.55;;;;;;;20.85;24.78;98701.19;1683422;84;21170;-66
2021/01/23 10:08:06;;;;;;;19.27;14.98;;;;;;;20.99;24.67;98710.34;1666413;83;21189;-66
2021/01/23 10:10:34;;;;;;;18.95;14.87;;;;;;;21.07;24.50;98706.72;1652306;85;21183;-67
2021/01/23 10:13:03;;;;;;;15.23;13.45;;;;;;;21.13;24.51;98714.35;1686179;84;21218;-66
2021/01/23 10:15:32;;;;;;;19.60;16.05;;;;;;;21.19;24.18;98709.38;1690513;84;21170;-68
2021/01/23 10:18:01;;;;;;;18.12;15.40;;;;;;;21.16;24.44;98713.08;1695232;83;21345;-68
2021/01/23 10:20:30;;;;;;;16.90;15.00;;;;;;;21.22;24.16;98705.37;1726167;83;21187;-68
2021/01/23 10:22:57;;;;;;;17.70;14.98;;;;;;;21.23;23.95;98707.00;1688118;84;21275;-67
2021/01/23 10:25:25;;;;;;;17.73;14.75;;;;;;;20.97;24.31;98703.86;1670570;83;21228;-67
2021/01/23 10:27:53;;;;;;;19.20;14.73;;;;;;;20.80;24.59;98698.93;1719605;82;21195;-67
2021/01/23 10:30:23;;;;;;;17.25;14.38;;;;;;;20.98;24.57;98698.75;1711419;83;21246;-68
2021/01/23 10:32:54;;;;;;;16.12;13.80;;;;;;;21.07;24.47;98694.62;1689811;83;21147;-69
2021/01/23 10:35:22;;;;;;;16.65;14.28;;;;;;;21.18;24.11;98695.64;1711047;83;21559;-68
2021/01/23 10:37:50;;;;;;;18.00;14.45;;;;;;;21.04;24.39;98687.57;1715796;81;21151;-66
2021/01/23 10:40:18;;;;;;;15.98;13.40;;;;;;;20.89;24.34;98688.93;1715899;83;21148;-67
2021/01/23 10:42:45;;;;;;;18.77;16.10;;;;;;;20.86;24.51;98691.28;1713865;83;21213;-67
2021/01/23 10:45:14;;;;;;;16.95;15.08;;;;;;;20.79;24.70;98690.06;1687314;84;21179;-67
2021/01/23 10:47:41;;;;;;;20.52;14.95;;;;;;;20.75;24.83;98689.72;1687607;83;21298;-67
2021/01/23 10:50:11;;;;;;;18.23;15.95;;;;;;;20.75;24.88;98684.34;1648907;86;21208;-66
2021/01/23 10:52:39;;;;;;;19.45;15.88;;;;;;;20.62;24.94;98691.88;1635960;87;21645;-67
2021/01/23 10:55:09;;;;;;;20.80;17.07;;;;;;;20.67;24.93;98692.80;1630022;86;21200;-66
2021/01/23 10:57:36;;;;;;;21.17;16.27;;;;;;;20.71;24.69;98683.20;1647049;86;21208;-67
2021/01/23 11:00:07;;;;;;;18.25;16.17;;;;;;;20.72;24.98;98674.09;1695479;83;21576;-66
2021/01/23 11:02:39;;;;;;;19.37;16.85;;;;;;;20.75;24.89;98670.11;1704484;83;21181;-66
2021/01/23 11:05:09;;;;;;;18.05;16.10;;;;;;;20.54;25.12;98662.15;1690438;84;21234;-66
2021/01/23 11:07:39;;;;;;;20.82;17.73;;;;;;;20.44;25.29;98655.22;1659788;84;21183;-66
2021/01/23 11:10:11;;;;;;;22.35;18.05;;;;;;;20.34;25.62;98656.63;1687748;85;21155;-66
2021/01/23 11:12:39;;;;;;;18.20;15.32;;;;;;;20.29;25.53;98661.08;1689588;84;21175;-65
2021/01/23 11:15:08;;;;;;;21.68;18.35;;;;;;;20.10;25.52;98649.14;1656137;86;21207;-67
2021/01/23 11:17:38;;;;;;;20.45;18.05;;;;;;;19.49;26.24;98641.83;1664489;85;21308;-67
2021/01/23 11:20:09;;;;;;;21.05;17.98;;;;;;;19.15;26.75;98636.18;1665743;84;21132;-68
2021/01/23 11:22:36;;;;;;;21.50;18.92;;;;;;;19.11;27.02;98640.87;1690760;84;21595;-68
2021/01/23 11:25:06;;;;;;;21.75;18.27;;;;;;;19.14;26.92;98645.25;1714364;82;21592;-68
2021/01/23 11:27:35;;;;;;;24.18;20.15;;;;;;;19.16;26.90;98645.83;1707558;82;21662;-67
2021/01/23 11:30:05;;;;;;;25.65;21.42;;;;;;;18.80;27.16;98644.91;1720790;81;21179;-67
2021/01/23 11:32:34;;;;;;;23.05;19.05;;;;;;;18.09;28.04;98642.86;1697655;83;21615;-67